Time;durP1;ratioP1;P1;durP2;ratioP2;P2;SDS_P1;SDS_P2;PMS_P1;PMS_P2;Temp;Humidity;BMP_temperature;BMP_pressure;BME280_temperature;BME280_humidity;BME280_pressure;Samples;Min_cycle;Max_cycle;Signal;HPM_P1;HPM_P2
2022/06/29 00:00:00;;;;;;;2.30;1.70;;;;;;;14.13;98.53;101926.97;4992267;28;20165;-48
2022/06/29 00:02:25;;;;;;;2.25;1.73;;;;;;;14.08;99.02;101934.31;4991891;28;20181;-51
2022/06/29 00:04:51;;;;;;;2.65;1.45;;;;;;;14.16;99.32;101934.94;4991838;28;20192;-48
2022/06/29 00:07:16;;;;;;;3.15;1.88;;;;;;;14.15;99.02;101931.38;4991771;28;20576;-48
2022/06/29 00:09:42;;;;;;;2.40;2.20;;;;;;;14.04;99.22;101932.66;4991975;28;20182;-48
2022/06/29 00:12:08;;;;;;;2.10;1.90;;;;;;;13.98;99.68;101921.19;4991739;28;20658;-47
2022/06/29 00:14:41;;;;;;;1.77;1.67;;;;;;;13.95;99.89;101921.28;4991741;28;20173;-51
2022/06/29 00:17:13;;;;;;;2.55;1.88;;;;;;;13.93;100.00;101928.56;4991494;28;20220;-48
2022/06/29 00:19:40;;;;;;;1.73;1.63;;;;;;;14.03;100.00;101921.00;4991711;28;20269;-47
2022/06/29 00:22:07;;;;;;;2.33;1.90;;;;;;;14.08;100.00;101926.25;4991709;28;20177;-50
2022/06/29 00:24:33;;;;;;;2.03;1.80;;;;;;;13.98;99.86;101925.69;4990652;28;20192;-47
2022/06/29 00:26:59;;;;;;;2.33;1.80;;;;;;;13.92;99.89;101924.06;4991249;28;20185;-48
2022/06/29 00:29:25;;;;;;;2.13;1.88;;;;;;;13.91;100.00;101913.38;4991429;28;20679;-47
2022/06/29 00:31:50;;;;;;;1.67;1.58;;;;;;;13.83;100.00;101919.00;4991446;28;20174;-48
2022/06/29 00:34:16;;;;;;;2.30;1.80;;;;;;;13.83;100.00;101913.63;4990744;28;20173;-49
2022/06/29 00:36:42;;;;;;;2.05;1.80;;;;;;;13.84;100.00;101901.94;4990690;28;20380;-46
2022/06/29 00:39:07;;;;;;;2.08;1.83;;;;;;;13.82;100.00;101895.72;4991299;28;20248;-47
2022/06/29 00:41:43;;;;;;;2.70;1.92;;;;;;;13.71;100.00;101909.56;4991213;28;20173;-48
2022/06/29 00:44:13;;;;;;;2.17;2.08;;;;;;;13.69;100.00;101908.72;4973241;28;20166;-49
2022/06/29 00:46:49;;;;;;;2.63;1.90;;;;;;;13.83;100.00;101916.31;4990685;28;20216;-47
2022/06/29 00:49:16;;;;;;;3.75;2.33;;;;;;;13.90;100.00;101898.13;4990912;28;20507;-46
2022/06/29 00:51:45;;;;;;;3.28;1.60;;;;;;;13.99;100.00;101893.31;4990956;28;20181;-48
2022/06/29 00:54:20;;;;;;;2.70;1.40;;;;;;;14.07;100.00;101900.25;4989819;28;20523;-48
2022/06/29 00:56:46;;;;;;;2.50;1.50;;;;;;;13.90;100.00;101892.75;4990707;28;20211;-47
2022/06/29 00:59:15;;;;;;;2.95;1.75;;;;;;;14.01;100.00;101890.53;4990655;28;20282;-45
2022/06/29 01:01:42;;;;;;;2.25;1.55;;;;;;;14.06;100.00;101906.53;4990336;28;20189;-46
2022/06/29 01:04:08;;;;;;;1.80;1.70;;;;;;;13.93;100.00;101900.75;4979906;28;20711;-46
2022/06/29 01:06:34;;;;;;;2.33;1.70;;;;;;;13.71;99.90;101900.56;4984673;28;20217;-45
2022/06/29 01:09:00;;;;;;;2.40;1.80;;;;;;;13.86;100.00;101902.72;4982044;28;20627;-45
2022/06/29 01:11:25;;;;;;;1.75;1.52;;;;;;;13.78;100.00;101899.44;4990227;28;20261;-45
2022/06/29 01:13:52;;;;;;;3.83;1.67;;;;;;;13.87;100.00;101891.03;4990167;28;20279;-45
2022/06/29 01:16:17;;;;;;;3.03;1.80;;;;;;;13.83;100.00;101891.22;4990324;28;20189;-45
2022/06/29 01:18:43;;;;;;;1.75;1.65;;;;;;;13.78;99.69;101894.94;4990421;28;20168;-45
2022/06/29 01:21:13;;;;;;;2.40;1.77;;;;;;;13.76;100.00;101893.22;4989610;28;20180;-45
2022/06/29 01:23:39;;;;;;;2.97;1.80;;;;;;;13.64;99.94;101890.94;4989933;28;20280;-46
2022/06/29 01:26:06;;;;;;;3.67;1.75;;;;;;;13.47;100.00;101887.03;4990546;28;20280;-47
2022/06/29 01:28:32;;;;;;;1.98;1.67;;;;;;;13.55;100.00;101889.44;4989901;28;20200;-45
2022/06/29 01:30:58;;;;;;;1.67;1.58;;;;;;;13.56;100.00;101886.72;4990414;28;20173;-46
2022/06/29 01:33:24;;;;;;;2.85;1.85;;;;;;;13.61;100.00;101881.16;4989541;28;20174;-45
2022/06/29 01:35:50;;;;;;;2.55;1.70;;;;;;;13.66;100.00;101878.31;4972712;28;20173;-46
2022/06/29 01:38:17;;;;;;;3.67;1.80;;;;;;;13.64;100.00;101858.63;4989988;28;20185;-45
2022/06/29 01:40:42;;;;;;;2.10;1.65;;;;;;;13.62;100.00;101869.44;4990235;28;20661;-45
2022/06/29 01:43:08;;;;;;;1.60;1.50;;;;;;;13.72;100.00;101864.63;4989906;28;20254;-46
2022/06/29 01:45:34;;;;;;;1.60;1.50;;;;;;;13.55;99.28;101862.53;4990098;28;20668;-46
2022/06/29 01:47:59;;;;;;;1.67;1.58;;;;;;;13.42;99.29;101863.88;4989602;28;20186;-45
2022/06/29 01:50:25;;;;;;;1.73;1.63;;;;;;;13.31;99.55;101865.09;4989341;28;20176;-46
2022/06/29 01:52:50;;;;;;;3.22;1.40;;;;;;;13.30;99.87;101863.34;4990222;28;20174;-47
2022/06/29 01:55:17;;;;;;;1.63;1.52;;;;;;;13.40;99.74;101869.28;4989942;28;20182;-46
2022/06/29 01:57:42;;;;;;;1.65;1.55;;;;;;;13.39;99.51;101854.09;4989967;28;20202;-46
2022/06/29 02:00:08;;;;;;;2.22;1.70;;;;;;;13.33;99.21;101856.97;4976808;28;20596;-46
2022/06/29 02:02:34;;;;;;;1.63;1.33;;;;;;;13.46;98.84;101855.63;4980131;28;20705;-45
2022/06/29 02:04:59;;;;;;;1.52;1.42;;;;;;;13.42;98.56;101855.78;4988910;28;20200;-46
2022/06/29 02:07:25;;;;;;;2.00;1.30;;;;;;;13.39;98.18;101843.31;4972066;28;20258;-45
2022/06/29 02:09:50;;;;;;;3.60;1.50;;;;;;;13.42;98.21;101845.91;4990010;28;20533;-46
2022/06/29 02:12:16;;;;;;;1.95;1.67;;;;;;;13.34;97.98;101834.53;4989870;28;20321;-45
2022/06/29 02:14:41;;;;;;;1.80;1.70;;;;;;;13.27;98.14;101833.81;4971810;28;20205;-47
2022/06/29 02:17:07;;;;;;;2.28;1.92;;;;;;;13.21;98.80;101842.09;4989860;28;20700;-45
2022/06/29 02:19:32;;;;;;;1.88;1.77;;;;;;;13.24;98.88;101831.22;4989480;28;20173;-47
2022/06/29 02:21:58;;;;;;;1.90;1.73;;;;;;;13.22;99.09;101843.84;4989367;28;20672;-46
2022/06/29 02:24:23;;;;;;;1.40;1.30;;;;;;;13.27;99.27;101827.53;4988534;28;20193;-45
2022/06/29 02:26:49;;;;;;;1.70;1.60;;;;;;;13.23;98.87;101823.19;4989606;28;20236;-47
2022/06/29 02:29:14;;;;;;;1.83;1.73;;;;;;;13.19;99.09;101823.31;4989407;28;20170;-46
2022/06/29 02:37:07;;;;;;;3.38;2.00;;;;;;;12.90;99.91;101816.19;4989086;28;20255;-47
2022/06/29 02:39:33;;;;;;;3.88;2.35;;;;;;;12.75;100.00;101816.69;4989728;28;20170;-47
2022/06/29 02:41:58;;;;;;;1.98;1.88;;;;;;;12.84;100.00;101807.44;4989422;28;20236;-44
2022/06/29 02:44:24;;;;;;;1.92;1.83;;;;;;;12.90;100.00;101804.53;4989115;28;20172;-44
2022/06/29 02:46:49;;;;;;;2.35;2.15;;;;;;;12.72;100.00;101797.94;4988657;28;20297;-45
2022/06/29 02:49:14;;;;;;;2.05;1.92;;;;;;;12.73;100.00;101797.91;4991829;28;20173;-46
2022/06/29 02:51:40;;;;;;;2.65;1.77;;;;;;;12.73;100.00;101794.34;4992451;28;20186;-46
2022/06/29 02:54:05;;;;;;;5.80;2.35;;;;;;;12.71;100.00;101797.06;4992512;28;20161;-45
2022/06/29 02:56:31;;;;;;;2.08;1.98;;;;;;;12.83;100.00;101800.28;4992952;28;20562;-45
2022/06/29 02:58:57;;;;;;;4.25;2.08;;;;;;;12.81;100.00;101796.75;4974857;28;20228;-46
2022/06/29 03:01:22;;;;;;;2.78;2.20;;;;;;;12.72;100.00;101798.81;4992383;28;20169;-45
2022/06/29 03:03:47;;;;;;;4.68;3.08;;;;;;;12.54;100.00;101794.03;4978582;28;20259;-47
2022/06/29 03:06:13;;;;;;;2.40;2.20;;;;;;;12.51;100.00;101796.81;4989278;28;20205;-45
2022/06/29 03:08:38;;;;;;;2.60;2.40;;;;;;;12.59;100.00;101789.38;4992126;28;20180;-45
2022/06/29 03:11:04;;;;;;;4.28;2.45;;;;;;;12.59;100.00;101786.69;4992413;28;20807;-46
2022/06/29 03:13:30;;;;;;;3.00;2.70;;;;;;;12.62;100.00;101785.72;4992218;28;20170;-45
2022/06/29 03:15:55;;;;;;;2.80;2.58;;;;;;;12.63;100.00;101780.28;4974557;28;20204;-45
2022/06/29 03:18:21;;;;;;;4.78;2.40;;;;;;;12.70;100.00;101784.56;4992481;28;20534;-45
2022/06/29 03:20:46;;;;;;;2.67;2.30;;;;;;;12.70;100.00;101779.19;4992240;28;20174;-46
2022/06/29 03:23:11;;;;;;;2.75;2.30;;;;;;;12.61;100.00;101784.81;4992346;28;20177;-45
2022/06/29 03:25:37;;;;;;;3.58;2.47;;;;;;;12.58;100.00;101780.44;4992373;28;20716;-47
2022/06/29 03:28:02;;;;;;;2.22;2.03;;;;;;;12.67;100.00;101778.41;4992390;28;20259;-44
2022/06/29 03:30:28;;;;;;;2.58;2.28;;;;;;;12.68;100.00;101781.03;4992424;28;20174;-46
2022/06/29 03:32:54;;;;;;;2.28;2.10;;;;;;;12.76;100.00;101781.66;4991650;28;20201;-46
2022/06/29 03:35:19;;;;;;;2.75;2.33;;;;;;;12.77;100.00;101780.75;4992418;28;20229;-46
2022/06/29 03:37:45;;;;;;;2.58;1.90;;;;;;;12.84;100.00;101785.94;4990864;28;20220;-47
2022/06/29 03:40:10;;;;;;;2.20;2.00;;;;;;;12.91;100.00;101791.03;4991955;28;20188;-47
2022/06/29 03:42:36;;;;;;;2.10;2.00;;;;;;;12.98;100.00;101781.84;4991719;28;20176;-46
2022/06/29 03:45:02;;;;;;;2.20;2.00;;;;;;;12.97;100.00;101785.47;4991596;28;20258;-46
2022/06/29 03:47:27;;;;;;;2.35;2.15;;;;;;;12.99;100.00;101782.72;4992327;28;20284;-46
2022/06/29 03:49:53;;;;;;;3.60;2.33;;;;;;;13.00;100.00;101773.72;4991766;28;20199;-45
2022/06/29 03:52:18;;;;;;;2.65;2.00;;;;;;;13.05;100.00;101782.50;4992311;28;20600;-45
2022/06/29 03:54:44;;;;;;;2.30;2.20;;;;;;;13.02;100.00;101779.06;4991051;28;20161;-46
2022/06/29 03:57:09;;;;;;;2.20;2.10;;;;;;;13.04;100.00;101777.19;4992109;28;20220;-45
2022/06/29 03:59:35;;;;;;;2.50;2.30;;;;;;;13.03;100.00;101770.94;4966568;28;20236;-46
2022/06/29 04:02:00;;;;;;;3.50;2.55;;;;;;;13.05;100.00;101771.75;4961985;28;20188;-45
2022/06/29 04:04:26;;;;;;;2.53;2.33;;;;;;;13.09;100.00;101781.47;4988011;28;20193;-45
2022/06/29 04:06:51;;;;;;;2.10;2.00;;;;;;;13.22;100.00;101789.16;4981532;28;20225;-45
2022/06/29 04:09:17;;;;;;;2.45;2.25;;;;;;;13.26;100.00;101786.31;4991925;28;20181;-47
2022/06/29 04:11:48;;;;;;;2.28;2.05;;;;;;;13.38;100.00;101791.31;4991246;28;20165;-47
2022/06/29 04:14:18;;;;;;;2.20;2.10;;;;;;;13.46;100.00;101796.41;4990943;28;20181;-46
2022/06/29 04:16:44;;;;;;;3.28;1.77;;;;;;;13.52;100.00;101801.59;4991152;28;20189;-45
2022/06/29 04:19:09;;;;;;;6.03;2.13;;;;;;;13.51;100.00;101797.16;4991531;28;20165;-45
2022/06/29 04:21:35;;;;;;;2.00;1.90;;;;;;;13.59;100.00;101792.34;4991601;28;20178;-45
2022/06/29 04:24:00;;;;;;;2.20;2.10;;;;;;;13.60;100.00;101795.94;4990636;28;20181;-46
2022/06/29 04:26:26;;;;;;;2.20;2.05;;;;;;;13.63;100.00;101789.56;4991458;28;20193;-45
2022/06/29 04:28:52;;;;;;;5.13;2.10;;;;;;;13.66;100.00;101781.38;4990888;28;20202;-46
2022/06/29 04:31:17;;;;;;;1.98;1.73;;;;;;;13.73;100.00;101788.28;4991086;28;20169;-45
2022/06/29 04:33:45;;;;;;;6.22;2.28;;;;;;;13.78;100.00;101789.88;4990841;28;20180;-46
2022/06/29 04:36:11;;;;;;;3.05;2.05;;;;;;;13.87;100.00;101788.66;4990627;28;20567;-47
2022/06/29 04:38:37;;;;;;;4.43;2.20;;;;;;;13.95;100.00;101785.69;4991312;28;20173;-46
2022/06/29 04:41:02;;;;;;;2.78;2.20;;;;;;;14.01;100.00;101780.06;4991021;28;20549;-47
2022/06/29 04:43:29;;;;;;;2.40;2.20;;;;;;;14.09;100.00;101788.75;4990385;28;20181;-46
2022/06/29 04:48:40;;;;;;;3.83;2.45;;;;;;;14.22;100.00;101790.03;4991055;28;20188;-45
2022/06/29 04:51:06;;;;;;;2.13;2.03;;;;;;;14.31;100.00;101786.13;4990692;28;20768;-47
2022/06/29 04:53:31;;;;;;;3.00;2.58;;;;;;;14.41;100.00;101781.25;4990427;28;20180;-47
2022/06/29 04:55:57;;;;;;;2.53;2.20;;;;;;;14.60;100.00;101785.00;4990614;28;20597;-46
2022/06/29 04:58:22;;;;;;;4.30;1.95;;;;;;;14.77;100.00;101778.94;4990429;28;20180;-47
2022/06/29 05:00:48;;;;;;;4.70;2.60;;;;;;;14.94;100.00;101774.69;4990932;28;20558;-46
2022/06/29 05:03:13;;;;;;;3.38;2.17;;;;;;;15.09;100.00;101778.56;4989620;28;20220;-48
2022/06/29 05:05:39;;;;;;;4.72;2.25;;;;;;;15.32;100.00;101773.03;4990501;28;20560;-46
2022/06/29 05:08:05;;;;;;;5.43;2.15;;;;;;;15.49;100.00;101780.44;4990542;28;20672;-47
2022/06/29 05:10:30;;;;;;;2.72;1.92;;;;;;;15.64;100.00;101781.59;4990197;28;20597;-46
2022/06/29 05:12:56;;;;;;;4.45;1.95;;;;;;;15.73;99.72;101783.03;4989948;28;20179;-47
2022/06/29 05:15:22;;;;;;;4.78;1.63;;;;;;;15.93;98.97;101782.13;4990243;28;20169;-48
2022/06/29 05:17:47;;;;;;;5.10;1.95;;;;;;;16.09;97.84;101785.88;4990497;28;20229;-47
2022/06/29 05:20:13;;;;;;;2.10;1.65;;;;;;;16.19;97.49;101771.00;4990260;28;20174;-48
2022/06/29 05:22:39;;;;;;;4.53;1.88;;;;;;;16.32;97.19;101784.81;4990629;28;20389;-46
2022/06/29 05:25:05;;;;;;;3.70;1.65;;;;;;;16.47;96.29;101772.41;4989677;28;20213;-46
2022/06/29 05:27:31;;;;;;;3.20;1.80;;;;;;;16.52;94.96;101770.34;4989953;28;20208;-45
2022/06/29 05:29:57;;;;;;;3.90;1.88;;;;;;;16.73;93.91;101771.13;4990383;28;20174;-48
2022/06/29 05:32:22;;;;;;;3.10;1.95;;;;;;;16.76;93.33;101767.41;4990262;28;20169;-46
2022/06/29 05:34:48;;;;;;;4.63;1.90;;;;;;;16.88;92.07;101764.13;4989925;28;20169;-47
2022/06/29 05:37:13;;;;;;;2.67;1.83;;;;;;;16.96;92.33;101763.72;4989644;28;20197;-45
2022/06/29 05:39:39;;;;;;;3.53;1.75;;;;;;;17.11;92.43;101768.38;4989100;28;20185;-45
2022/06/29 05:42:04;;;;;;;3.30;1.88;;;;;;;17.12;92.47;101764.72;4990400;28;20180;-47
2022/06/29 05:44:30;;;;;;;5.05;2.10;;;;;;;17.21;90.87;101760.66;4989557;28;20645;-46
2022/06/29 05:46:56;;;;;;;2.10;1.65;;;;;;;17.27;90.67;101763.03;4990299;28;20560;-46
2022/06/29 05:49:21;;;;;;;5.80;2.15;;;;;;;17.38;90.80;101767.91;4989943;28;20687;-45
2022/06/29 05:51:47;;;;;;;2.15;1.80;;;;;;;17.43;90.72;101765.84;4990334;28;20189;-48
2022/06/29 05:54:12;;;;;;;3.00;2.10;;;;;;;17.52;90.34;101761.78;4989419;28;20699;-46
2022/06/29 05:56:38;;;;;;;3.78;1.98;;;;;;;17.62;89.59;101766.66;4989976;28;20679;-48
2022/06/29 05:59:03;;;;;;;4.05;2.25;;;;;;;17.58;87.59;101759.63;4989064;28;20166;-47
2022/06/29 06:01:29;;;;;;;3.63;2.03;;;;;;;17.69;87.34;101757.22;4989601;28;20312;-47
2022/06/29 06:03:54;;;;;;;3.35;2.00;;;;;;;17.81;86.56;101757.53;4989765;28;20306;-46
2022/06/29 06:06:20;;;;;;;3.22;1.77;;;;;;;17.83;86.17;101750.22;4990123;28;20637;-47
2022/06/29 06:08:45;;;;;;;3.38;2.28;;;;;;;17.85;87.27;101761.84;4988891;28;20244;-45
2022/06/29 06:11:13;;;;;;;2.30;1.70;;;;;;;17.99;86.80;101764.69;4990598;28;20292;-48
2022/06/29 06:13:39;;;;;;;7.20;1.67;;;;;;;18.07;86.20;101751.59;4972288;28;20177;-47
2022/06/29 06:16:05;;;;;;;1.92;1.80;;;;;;;18.26;85.35;101758.72;4972913;28;20691;-48
2022/06/29 06:18:31;;;;;;;2.92;1.45;;;;;;;18.41;83.75;101755.16;4989778;28;20166;-45
2022/06/29 06:20:56;;;;;;;2.00;1.70;;;;;;;18.49;82.68;101750.13;4989987;28;20522;-45
2022/06/29 06:23:22;;;;;;;5.13;2.00;;;;;;;18.57;81.38;101749.72;4989915;28;20169;-47
2022/06/29 06:25:48;;;;;;;1.60;1.50;;;;;;;18.72;81.90;101754.25;4992912;28;20608;-44
2022/06/29 06:28:13;;;;;;;1.90;1.75;;;;;;;18.74;81.78;101759.59;4993846;28;20193;-45
2022/06/29 06:30:39;;;;;;;2.47;1.67;;;;;;;18.87;81.33;101748.91;4994081;28;20255;-46
2022/06/29 06:33:04;;;;;;;1.70;1.35;;;;;;;18.84;81.26;101755.41;4993464;28;20165;-42
2022/06/29 06:35:30;;;;;;;1.65;1.50;;;;;;;18.94;81.79;101759.34;4993864;28;20729;-42
2022/06/29 06:37:56;;;;;;;1.40;1.30;;;;;;;19.21;82.81;101755.94;4993817;28;20201;-45
2022/06/29 06:43:05;;;;;;;2.83;1.48;;;;;;;19.55;81.67;101759.38;4993152;28;20189;-43
2022/06/29 06:45:31;;;;;;;1.90;1.23;;;;;;;19.64;81.02;101760.66;4993125;28;20182;-42
2022/06/29 06:47:57;;;;;;;2.10;1.10;;;;;;;19.89;80.66;101760.00;4993331;28;20197;-43
2022/06/29 06:50:23;;;;;;;2.72;1.50;;;;;;;19.81;78.66;101765.94;4973395;28;20196;-42
2022/06/29 06:52:48;;;;;;;3.33;1.60;;;;;;;19.83;76.96;101761.28;4973664;28;20177;-44
2022/06/29 06:55:14;;;;;;;2.78;1.50;;;;;;;19.98;75.36;101753.97;4973282;28;20666;-42
2022/06/29 06:57:39;;;;;;;4.22;1.40;;;;;;;20.40;75.46;101762.22;4973535;28;20190;-43
2022/06/29 07:00:06;;;;;;;5.22;1.50;;;;;;;20.56;73.75;101754.81;4973879;28;20174;-41
2022/06/29 07:02:31;;;;;;;1.60;1.50;;;;;;;20.63;72.53;101749.88;4973360;28;20170;-43
2022/06/29 07:04:57;;;;;;;1.30;1.20;;;;;;;20.48;71.99;101752.59;4973121;28;20264;-43
2022/06/29 07:07:23;;;;;;;1.33;1.23;;;;;;;20.97;71.52;101745.78;4973528;28;20194;-43
2022/06/29 07:09:48;;;;;;;2.53;1.48;;;;;;;21.42;70.90;101745.47;4973168;28;20174;-43
2022/06/29 07:12:13;;;;;;;4.50;1.42;;;;;;;21.43;70.21;101748.13;4973614;28;20189;-41
2022/06/29 07:14:39;;;;;;;3.08;1.52;;;;;;;21.42;70.21;101745.47;4972601;28;20181;-42
2022/06/29 07:17:04;;;;;;;5.90;1.40;;;;;;;21.67;69.94;101736.44;4973566;28;20198;-42
2022/06/29 07:19:30;;;;;;;2.40;1.52;;;;;;;21.76;69.38;101731.22;4973149;28;20178;-41
2022/06/29 07:21:55;;;;;;;1.98;1.48;;;;;;;21.72;68.05;101737.00;4973438;28;20174;-43
2022/06/29 07:24:21;;;;;;;1.58;1.40;;;;;;;21.69;69.41;101734.47;4972798;28;20197;-41
2022/06/29 07:26:46;;;;;;;2.38;1.10;;;;;;;21.69;68.34;101740.84;4972889;28;20216;-44
2022/06/29 07:29:12;;;;;;;1.55;1.17;;;;;;;21.63;67.74;101735.81;4973440;28;20177;-42
2022/06/29 07:31:37;;;;;;;1.30;1.13;;;;;;;21.23;66.49;101724.03;4972901;28;20201;-41
2022/06/29 07:34:04;;;;;;;1.98;1.10;;;;;;;20.93;66.81;101727.88;4972489;28;20236;-41
2022/06/29 07:36:30;;;;;;;3.10;1.30;;;;;;;21.35;67.72;101726.78;4972984;28;20182;-42
2022/06/29 07:38:56;;;;;;;2.53;1.15;;;;;;;21.22;65.93;101722.31;4972859;28;20181;-41
2022/06/29 07:41:21;;;;;;;2.13;1.00;;;;;;;21.66;66.08;101718.34;4973181;28;20177;-43
2022/06/29 07:43:47;;;;;;;1.17;1.08;;;;;;;21.77;65.98;101722.03;4972367;28;20165;-42
2022/06/29 07:46:12;;;;;;;2.00;1.10;;;;;;;22.06;65.35;101716.34;4972894;28;20688;-42
2022/06/29 07:48:38;;;;;;;0.98;0.98;;;;;;;22.29;63.96;101698.31;4971530;28;20646;-42
2022/06/29 07:51:03;;;;;;;1.65;1.23;;;;;;;22.00;63.34;101714.06;4970109;28;20534;-45
2022/06/29 07:53:29;;;;;;;3.13;1.25;;;;;;;21.75;63.51;101710.38;4986585;28;20215;-44
2022/06/29 07:55:55;;;;;;;4.07;1.23;;;;;;;21.74;63.87;101707.78;4974371;28;20219;-47
2022/06/29 07:58:21;;;;;;;1.70;1.10;;;;;;;21.81;64.57;101706.34;4992613;28;20201;-42
2022/06/29 08:00:47;;;;;;;0.80;0.80;;;;;;;21.81;64.26;101703.59;4991994;28;20181;-44
2022/06/29 08:03:12;;;;;;;1.55;1.00;;;;;;;21.92;63.45;101700.97;4991794;28;20177;-43
2022/06/29 08:05:38;;;;;;;2.53;1.30;;;;;;;22.26;62.40;101694.94;4991563;28;20197;-43
2022/06/29 08:08:04;;;;;;;1.95;1.02;;;;;;;22.27;62.06;101700.28;4991690;28;20216;-44
2022/06/29 08:10:31;;;;;;;1.25;0.90;;;;;;;22.14;62.79;101703.00;4984364;28;20178;-43
2022/06/29 08:12:57;;;;;;;2.90;1.15;;;;;;;22.18;62.25;101701.81;4991442;28;20181;-45
2022/06/29 08:15:23;;;;;;;1.77;1.30;;;;;;;22.41;60.19;101700.16;4974224;28;20167;-41
2022/06/29 08:17:49;;;;;;;5.85;1.42;;;;;;;22.50;59.89;101694.97;4973858;28;20512;-42
2022/06/29 08:20:15;;;;;;;1.98;1.05;;;;;;;22.57;60.67;101691.66;4991331;28;20243;-44
2022/06/29 08:22:41;;;;;;;1.20;1.10;;;;;;;22.74;60.51;101689.50;4992051;28;20523;-42
2022/06/29 08:25:08;;;;;;;2.63;1.00;;;;;;;22.88;58.99;101688.47;4990738;28;20211;-42
2022/06/29 08:27:34;;;;;;;1.90;1.13;;;;;;;22.97;58.76;101685.03;4991390;28;20350;-41
2022/06/29 08:30:00;;;;;;;2.63;0.90;;;;;;;22.98;58.56;101689.50;4990445;28;20181;-43
2022/06/29 08:32:26;;;;;;;1.33;0.85;;;;;;;23.14;58.60;101700.16;4983973;28;20181;-43
2022/06/29 08:34:52;;;;;;;2.08;1.13;;;;;;;22.74;57.72;101690.41;4973171;28;20176;-43
2022/06/29 08:37:18;;;;;;;1.25;1.10;;;;;;;23.19;58.52;101689.72;4972104;28;20228;-43
2022/06/29 08:39:44;;;;;;;2.53;1.17;;;;;;;23.02;56.18;101689.19;4972525;28;20260;-43
2022/06/29 08:42:10;;;;;;;4.88;1.00;;;;;;;22.94;58.27;101686.13;4971603;28;20185;-42
2022/06/29 08:44:37;;;;;;;1.48;0.80;;;;;;;23.36;58.43;101688.41;4938024;28;20174;-43
2022/06/29 08:47:11;;;;;;;2.88;1.17;;;;;;;23.23;57.14;101685.78;4971164;28;20198;-43
2022/06/29 08:49:39;;;;;;;1.50;1.08;;;;;;;23.45;56.82;101685.81;4971351;28;20252;-43
2022/06/29 08:52:06;;;;;;;3.45;1.00;;;;;;;23.41;55.44;101678.84;4987615;28;20269;-42
2022/06/29 08:54:36;;;;;;;2.00;0.95;;;;;;;23.31;55.64;101685.16;4973148;28;20169;-43
2022/06/29 08:57:03;;;;;;;1.33;0.80;;;;;;;23.20;55.63;101680.56;4991182;28;20197;-42
2022/06/29 08:59:29;;;;;;;0.95;0.68;;;;;;;23.43;54.28;101682.31;4990878;28;20182;-43
2022/06/29 09:01:55;;;;;;;3.05;1.08;;;;;;;23.31;54.62;101676.94;4990914;28;20181;-47
2022/06/29 09:04:20;;;;;;;1.85;0.90;;;;;;;23.59;53.43;101681.09;4990685;28;20173;-46
2022/06/29 09:06:52;;;;;;;2.08;0.80;;;;;;;23.66;52.63;101674.16;4990605;28;20545;-45
2022/06/29 09:09:18;;;;;;;2.40;1.10;;;;;;;23.58;53.72;101674.78;4991054;28;20165;-46
2022/06/29 09:11:43;;;;;;;2.45;1.00;;;;;;;23.81;53.08;101672.97;4990611;28;20606;-48
2022/06/29 09:14:15;;;;;;;3.50;1.13;;;;;;;24.20;53.96;101665.19;4990527;28;20176;-44
2022/06/29 09:17:01;;;;;;;1.73;1.00;;;;;;;24.41;51.74;101661.69;4972421;28;20263;-44
2022/06/29 09:19:43;;;;;;;1.08;0.80;;;;;;;24.44;52.52;101670.50;4990260;28;20523;-46
2022/06/29 09:22:09;;;;;;;1.48;1.00;;;;;;;24.25;51.83;101671.19;4990667;28;20180;-42
2022/06/29 09:24:35;;;;;;;1.52;1.08;;;;;;;24.20;52.51;101659.72;4990069;28;20192;-45
2022/06/29 09:27:03;;;;;;;1.25;0.93;;;;;;;24.67;52.03;101671.34;4990378;28;20219;-46
2022/06/29 09:29:33;;;;;;;2.47;0.90;;;;;;;24.32;53.52;101667.94;4990594;28;20646;-46
2022/06/29 09:32:02;;;;;;;5.78;1.15;;;;;;;24.35;52.74;101675.91;4990107;28;20169;-43
2022/06/29 09:34:48;;;;;;;1.58;1.02;;;;;;;23.96;53.44;101680.91;4990233;28;20176;-46
2022/06/29 09:37:15;;;;;;;2.72;1.38;;;;;;;24.06;52.41;101676.44;4990168;28;20595;-47
2022/06/29 09:39:43;;;;;;;2.13;0.90;;;;;;;24.04;53.02;101664.75;4990380;28;20180;-45
2022/06/29 09:42:29;;;;;;;1.48;0.90;;;;;;;23.97;51.87;101660.78;4990263;28;20663;-46
2022/06/29 09:44:54;;;;;;;2.97;1.10;;;;;;;24.08;52.45;101662.63;4989599;28;20197;-45
2022/06/29 09:47:22;;;;;;;1.63;1.13;;;;;;;24.09;53.18;101669.84;4990279;28;20195;-45
2022/06/29 09:49:57;;;;;;;1.15;0.70;;;;;;;24.70;51.21;101650.16;4990320;28;20180;-46
2022/06/29 09:52:24;;;;;;;0.70;0.70;;;;;;;24.53;51.94;101649.72;4990637;28;20172;-47
2022/06/29 09:54:55;;;;;;;1.20;0.90;;;;;;;24.41;50.61;101661.69;4990132;28;20752;-45
2022/06/29 09:57:23;;;;;;;1.35;0.70;;;;;;;23.88;52.50;101661.50;4973740;28;20192;-45
2022/06/29 10:02:43;;;;;;;2.33;1.30;;;;;;;24.16;51.76;101643.69;4995120;28;20172;-45
2022/06/29 10:05:14;;;;;;;3.15;0.98;;;;;;;24.68;52.70;101647.53;4994170;28;20534;-44
2022/06/29 10:07:46;;;;;;;1.60;1.08;;;;;;;24.82;52.59;101641.78;4994528;28;20477;-46
2022/06/29 10:10:17;;;;;;;1.90;1.00;;;;;;;24.55;52.48;101647.72;4994853;28;20189;-46
2022/06/29 10:16:00;;;;;;;4.15;1.10;;;;;;;25.06;50.59;101644.25;4994509;28;20173;-47
2022/06/29 10:18:45;;;;;;;1.27;1.17;;;;;;;24.84;51.40;101637.03;4994513;28;20270;-47
2022/06/29 10:21:18;;;;;;;2.38;1.23;;;;;;;25.29;51.15;101635.91;4994555;28;20500;-46
2022/06/29 10:23:56;;;;;;;2.60;1.00;;;;;;;25.12;50.52;101633.75;4993934;28;20187;-45
2022/06/29 10:26:28;;;;;;;2.38;1.20;;;;;;;25.46;51.40;101639.94;4994193;28;20196;-46
2022/06/29 10:29:16;;;;;;;3.85;1.17;;;;;;;25.48;51.53;101630.56;4994296;28;20525;-47
2022/06/29 10:32:08;;;;;;;2.90;1.00;;;;;;;25.17;53.31;101631.50;4994346;28;20172;-45
2022/06/29 10:34:34;;;;;;;3.25;1.10;;;;;;;24.99;51.56;101633.94;4994365;28;20256;-45
2022/06/29 10:37:02;;;;;;;3.15;1.10;;;;;;;25.06;52.10;101625.06;4994068;28;20213;-44
2022/06/29 10:39:52;;;;;;;1.52;1.17;;;;;;;24.84;53.05;101626.06;4994644;28;20175;-46
2022/06/29 10:45:14;;;;;;;2.58;0.93;;;;;;;24.60;52.60;101636.41;4993824;28;20337;-49
2022/06/29 10:47:45;;;;;;;1.95;1.23;;;;;;;24.48;51.77;101613.63;4976415;28;20197;-49
2022/06/29 10:50:13;;;;;;;1.80;1.17;;;;;;;24.53;52.75;101622.31;4993769;28;20183;-47
2022/06/29 10:52:39;;;;;;;1.50;0.90;;;;;;;24.51;52.85;101623.44;4993973;28;20675;-46
2022/06/29 10:55:06;;;;;;;1.48;0.85;;;;;;;24.61;52.11;101619.81;4993594;28;20537;-46
2022/06/29 10:57:36;;;;;;;1.10;1.02;;;;;;;24.92;52.30;101622.66;4993738;28;20283;-45
2022/06/29 11:00:09;;;;;;;1.58;1.00;;;;;;;24.31;52.44;101608.66;4993764;28;20644;-46
2022/06/29 11:02:38;;;;;;;1.45;1.00;;;;;;;24.65;52.92;101629.50;4993681;28;20165;-49
2022/06/29 11:05:04;;;;;;;2.20;1.05;;;;;;;24.30;52.30;101618.75;4993208;28;20197;-47
2022/06/29 11:12:58;;;;;;;3.08;1.00;;;;;;;24.50;51.56;101608.88;4993465;28;20161;-47
2022/06/29 11:15:41;;;;;;;2.55;1.30;;;;;;;24.50;53.65;101608.03;4993124;28;20195;-46
2022/06/29 11:18:07;;;;;;;1.48;0.80;;;;;;;24.68;53.56;101610.03;4993377;28;20511;-48
2022/06/29 11:20:32;;;;;;;1.40;1.00;;;;;;;24.31;53.80;101614.16;4993262;28;20179;-45
2022/06/29 11:22:58;;;;;;;3.17;0.90;;;;;;;24.35;53.93;101605.53;4993367;28;20179;-48
2022/06/29 11:25:25;;;;;;;1.13;0.85;;;;;;;24.66;53.38;101598.38;4992959;28;20236;-47
2022/06/29 11:27:50;;;;;;;2.38;1.20;;;;;;;25.32;54.39;101591.78;4992982;28;20227;-46
2022/06/29 11:30:22;;;;;;;1.17;0.90;;;;;;;25.32;51.04;101597.25;4993321;28;20254;-45
2022/06/29 11:32:48;;;;;;;1.75;1.08;;;;;;;25.37;51.51;101586.75;4993056;28;20181;-46
2022/06/29 11:35:22;;;;;;;1.42;0.98;;;;;;;25.66;50.94;101577.75;4992815;28;20666;-47
2022/06/29 11:37:49;;;;;;;1.42;1.17;;;;;;;25.33;51.24;101592.63;4993013;28;20251;-46
2022/06/29 11:40:18;;;;;;;2.25;0.90;;;;;;;25.05;51.53;101586.81;4992971;28;20276;-48
2022/06/29 11:45:36;;;;;;;1.40;0.90;;;;;;;25.66;51.31;101589.59;4993621;28;20200;-47
2022/06/29 11:48:13;;;;;;;1.80;0.90;;;;;;;24.96;51.34;101574.78;4992631;28;20193;-47